Time;durP1;ratioP1;P1;durP2;ratioP2;P2;SDS_P1;SDS_P2;PMS_P1;PMS_P2;Temp;Humidity;BMP_temperature;BMP_pressure;BME280_temperature;BME280_humidity;BME280_pressure;Samples;Min_cycle;Max_cycle;Signal;HPM_P1;HPM_P2
2023/06/15 00:01:32;;;;;;;3.20;2.30;;;20.00;99.90;;;;;;5093860;28;20310;-48
2023/06/15 00:03:58;;;;;;;4.82;2.30;;;20.00;99.90;;;;;;5093806;28;20353;-48
2023/06/15 00:06:24;;;;;;;3.72;2.28;;;19.90;99.90;;;;;;5093437;28;20161;-49
2023/06/15 00:08:50;;;;;;;3.70;2.40;;;19.80;99.90;;;;;;5093483;28;20227;-49
2023/06/15 00:11:15;;;;;;;2.30;2.10;;;19.70;99.90;;;;;;5093519;28;20250;-49
2023/06/15 00:13:41;;;;;;;3.35;2.50;;;19.60;99.90;;;;;;5093964;28;20201;-48
2023/06/15 00:16:06;;;;;;;3.25;2.22;;;19.50;99.90;;;;;;5093500;28;20165;-49
2023/06/15 00:18:37;;;;;;;4.35;3.13;;;19.50;99.90;;;;;;5093458;28;20165;-49
2023/06/15 00:21:03;;;;;;;3.30;2.53;;;19.30;99.90;;;;;;5093641;28;20192;-48
2023/06/15 00:23:29;;;;;;;3.05;2.50;;;19.30;99.90;;;;;;5093201;28;20586;-48
2023/06/15 00:25:55;;;;;;;4.97;2.67;;;19.20;99.90;;;;;;5093524;28;20215;-48
2023/06/15 00:28:21;;;;;;;3.17;2.88;;;19.20;99.90;;;;;;5093248;28;20525;-48
2023/06/15 00:30:46;;;;;;;7.10;3.40;;;19.10;99.90;;;;;;5075218;28;20165;-49
2023/06/15 00:33:12;;;;;;;2.72;2.42;;;19.10;99.90;;;;;;5093697;28;20271;-49
2023/06/15 00:35:37;;;;;;;3.20;2.30;;;19.00;99.90;;;;;;5093100;28;20169;-49
2023/06/15 00:38:03;;;;;;;5.15;2.78;;;18.80;99.90;;;;;;5093321;28;20310;-49
2023/06/15 00:40:28;;;;;;;2.72;2.35;;;18.70;99.90;;;;;;5093062;28;20501;-49
2023/06/15 00:42:54;;;;;;;2.65;2.45;;;18.70;99.90;;;;;;5093023;28;20196;-49
2023/06/15 00:45:20;;;;;;;4.07;2.25;;;18.70;99.90;;;;;;5092970;28;20248;-49
2023/06/15 00:47:46;;;;;;;5.57;2.72;;;18.60;99.90;;;;;;5092961;28;20168;-49
2023/06/15 00:50:19;;;;;;;5.78;2.20;;;18.50;99.90;;;;;;5093196;28;20169;-49
2023/06/15 00:52:45;;;;;;;7.88;2.70;;;18.50;99.90;;;;;;5093190;28;20625;-49
2023/06/15 00:55:13;;;;;;;5.25;2.50;;;18.40;99.90;;;;;;5093133;28;20288;-49
2023/06/15 00:57:44;;;;;;;3.75;2.58;;;18.60;99.90;;;;;;5092937;28;20184;-49
2023/06/15 01:00:14;;;;;;;8.63;2.80;;;18.70;99.90;;;;;;5093292;28;20252;-49
2023/06/15 01:02:40;;;;;;;5.95;2.60;;;18.80;99.90;;;;;;5093160;28;20327;-48
2023/06/15 01:05:12;;;;;;;6.45;2.50;;;18.80;99.90;;;;;;5092785;28;20173;-48
2023/06/15 01:07:40;;;;;;;3.00;2.70;;;18.70;99.90;;;;;;5092407;28;20292;-48
2023/06/15 01:10:08;;;;;;;5.97;2.88;;;18.60;99.90;;;;;;5073774;28;20176;-49
2023/06/15 01:12:40;;;;;;;2.65;2.40;;;18.60;99.90;;;;;;5092577;28;20256;-48
2023/06/15 01:15:07;;;;;;;7.18;2.55;;;18.70;99.90;;;;;;5092385;28;20193;-48
2023/06/15 01:17:34;;;;;;;3.20;2.30;;;18.60;99.90;;;;;;5092279;28;20617;-49
2023/06/15 01:20:05;;;;;;;5.43;2.40;;;18.60;99.90;;;;;;5092419;28;20169;-48
2023/06/15 01:22:57;;;;;;;4.63;3.00;;;18.70;99.90;;;;;;5092357;28;20212;-48
2023/06/15 01:25:29;;;;;;;3.25;2.65;;;18.70;99.90;;;;;;5092448;28;20161;-48
2023/06/15 01:28:00;;;;;;;4.47;2.72;;;18.70;99.90;;;;;;5092155;28;20245;-48
2023/06/15 01:30:29;;;;;;;4.90;2.85;;;18.60;99.90;;;;;;5092125;28;20645;-48
2023/06/15 01:32:55;;;;;;;3.67;2.72;;;18.70;99.90;;;;;;5092311;28;20200;-48
2023/06/15 01:35:20;;;;;;;7.00;2.53;;;18.70;99.90;;;;;;5092029;28;20680;-48
2023/06/15 01:37:46;;;;;;;3.15;2.55;;;18.60;99.90;;;;;;5092072;28;20169;-48
2023/06/15 01:40:12;;;;;;;3.53;2.50;;;18.50;99.90;;;;;;5092369;28;20162;-48
2023/06/15 01:42:39;;;;;;;3.28;2.40;;;18.60;99.90;;;;;;5091794;28;20219;-48
2023/06/15 01:45:06;;;;;;;3.28;1.83;;;18.60;99.90;;;;;;5091880;28;20652;-48
2023/06/15 01:47:31;;;;;;;3.50;2.40;;;18.60;99.90;;;;;;5091925;28;20173;-48
2023/06/15 01:49:59;;;;;;;4.55;2.63;;;18.60;99.90;;;;;;5092086;28;20702;-48
2023/06/15 01:52:24;;;;;;;2.67;2.47;;;18.60;99.90;;;;;;5091870;28;20164;-49
2023/06/15 01:54:50;;;;;;;2.67;2.10;;;18.60;99.90;;;;;;5091809;28;20173;-48
2023/06/15 01:57:20;;;;;;;4.28;2.42;;;18.50;99.90;;;;;;5091945;28;20173;-49
2023/06/15 01:59:45;;;;;;;4.28;2.03;;;18.60;99.90;;;;;;5091978;28;20271;-48
2023/06/15 02:02:11;;;;;;;6.22;2.50;;;18.60;99.90;;;;;;5073912;28;20675;-48
2023/06/15 02:04:36;;;;;;;5.25;2.80;;;18.40;99.90;;;;;;5091651;28;20185;-48
2023/06/15 02:07:02;;;;;;;3.70;2.75;;;18.20;99.90;;;;;;5091750;28;20211;-48
2023/06/15 02:09:29;;;;;;;2.60;2.25;;;18.20;99.90;;;;;;5091606;28;20196;-49
2023/06/15 02:11:54;;;;;;;2.35;2.15;;;18.10;99.90;;;;;;5091857;28;20166;-48
2023/06/15 02:14:23;;;;;;;3.40;2.40;;;17.90;99.90;;;;;;5091532;28;20520;-48
2023/06/15 02:16:49;;;;;;;5.43;2.10;;;17.90;99.90;;;;;;5091675;28;20188;-48
2023/06/15 02:19:20;;;;;;;5.55;2.47;;;17.90;99.90;;;;;;5091748;28;20170;-48
2023/06/15 02:21:47;;;;;;;3.47;2.03;;;17.90;99.90;;;;;;5092495;28;20628;-48
2023/06/15 02:24:13;;;;;;;4.50;2.35;;;17.90;99.90;;;;;;5095879;28;20573;-49
2023/06/15 02:26:40;;;;;;;2.63;2.40;;;17.90;99.90;;;;;;5095876;28;20215;-48
2023/06/15 02:29:06;;;;;;;3.92;2.40;;;17.90;99.90;;;;;;5095642;28;20169;-48
2023/06/15 02:31:31;;;;;;;3.92;2.53;;;17.90;99.90;;;;;;5095508;28;20268;-48
2023/06/15 02:33:57;;;;;;;3.50;2.20;;;17.90;99.90;;;;;;5095538;28;20169;-48
2023/06/15 02:36:22;;;;;;;3.92;2.60;;;17.90;99.90;;;;;;5095490;28;20176;-48
2023/06/15 02:38:48;;;;;;;5.85;2.30;;;17.80;99.90;;;;;;5095473;28;20165;-49
2023/06/15 02:41:14;;;;;;;3.53;2.40;;;17.80;99.90;;;;;;5095623;28;20579;-49
2023/06/15 02:43:40;;;;;;;6.45;2.28;;;17.70;99.90;;;;;;5095702;28;20204;-48
2023/06/15 02:46:06;;;;;;;2.83;2.20;;;17.60;99.90;;;;;;5095512;28;20244;-48
2023/06/15 02:48:32;;;;;;;3.38;2.17;;;17.60;99.90;;;;;;5077349;28;20231;-48
2023/06/15 02:50:58;;;;;;;4.05;2.25;;;17.70;99.90;;;;;;5095130;28;20170;-48
2023/06/15 02:53:24;;;;;;;4.15;2.17;;;17.60;99.90;;;;;;5095059;28;20169;-49
2023/06/15 02:55:51;;;;;;;4.78;2.72;;;17.30;99.90;;;;;;5095239;28;20169;-49
2023/06/15 02:58:19;;;;;;;2.90;2.67;;;17.30;99.90;;;;;;5094979;28;20176;-49
2023/06/15 03:00:48;;;;;;;2.70;2.15;;;17.20;99.90;;;;;;5094881;28;20574;-49
2023/06/15 03:03:14;;;;;;;5.05;2.85;;;17.20;99.90;;;;;;5094798;28;20205;-49
2023/06/15 03:05:40;;;;;;;2.83;2.63;;;17.30;99.90;;;;;;5095261;28;20244;-48
2023/06/15 03:08:06;;;;;;;7.95;2.72;;;17.30;99.90;;;;;;5076786;28;20304;-48
2023/06/15 03:10:32;;;;;;;4.57;3.15;;;17.30;99.90;;;;;;5094799;28;20264;-49
2023/06/15 03:12:57;;;;;;;3.75;2.90;;;17.30;99.90;;;;;;5094692;28;20169;-48
2023/06/15 03:15:23;;;;;;;6.18;2.70;;;17.40;99.90;;;;;;5094752;28;20169;-49
2023/06/15 03:17:49;;;;;;;3.58;2.83;;;17.30;99.90;;;;;;5076619;28;20516;-48
2023/06/15 03:20:14;;;;;;;4.70;2.67;;;17.30;99.90;;;;;;5094554;28;20168;-49
2023/06/15 03:22:40;;;;;;;3.00;2.63;;;17.30;99.90;;;;;;5094898;28;20272;-49
2023/06/15 03:25:10;;;;;;;5.28;3.17;;;17.30;99.90;;;;;;5094692;28;20173;-49
2023/06/15 03:27:37;;;;;;;7.28;3.08;;;17.40;99.90;;;;;;5094481;28;20168;-48
2023/06/15 03:30:05;;;;;;;3.78;2.70;;;17.40;99.90;;;;;;5094617;28;20177;-49
2023/06/15 03:32:32;;;;;;;2.70;2.50;;;17.20;99.90;;;;;;5094591;28;20628;-48
2023/06/15 03:34:57;;;;;;;5.63;2.50;;;17.40;99.90;;;;;;5093983;28;20173;-48
2023/06/15 03:37:23;;;;;;;4.93;2.50;;;17.80;99.90;;;;;;5078737;28;20701;-49
2023/06/15 03:39:49;;;;;;;6.72;2.38;;;17.20;99.90;;;;;;5074266;28;20598;-49
2023/06/15 03:42:15;;;;;;;6.20;2.95;;;17.10;99.90;;;;;;5073699;28;20560;-49
2023/06/15 03:44:40;;;;;;;5.65;3.17;;;17.10;99.90;;;;;;5074453;28;20172;-49
2023/06/15 03:47:06;;;;;;;3.38;2.75;;;17.10;99.90;;;;;;5073848;28;20170;-48
2023/06/15 03:49:32;;;;;;;5.78;3.05;;;17.10;99.90;;;;;;5073709;28;20223;-49
2023/06/15 03:51:57;;;;;;;4.90;2.90;;;17.10;99.90;;;;;;5073716;28;20194;-48
2023/06/15 03:54:23;;;;;;;4.47;2.85;;;16.90;99.90;;;;;;5073694;28;20490;-48
2023/06/15 03:56:49;;;;;;;6.30;3.03;;;17.00;99.90;;;;;;5073685;28;20630;-48
2023/06/15 03:59:15;;;;;;;5.75;3.38;;;17.20;99.90;;;;;;5073608;28;20158;-48
2023/06/15 04:01:40;;;;;;;7.95;2.90;;;17.30;99.90;;;;;;5073868;28;20177;-48
2023/06/15 04:04:06;;;;;;;3.03;2.55;;;17.30;99.90;;;;;;5073473;28;20214;-48
2023/06/15 04:06:32;;;;;;;3.30;2.40;;;17.40;99.90;;;;;;5073496;28;20173;-48
2023/06/15 04:08:58;;;;;;;4.10;2.20;;;17.40;99.90;;;;;;5073342;28;20301;-49
2023/06/15 04:11:23;;;;;;;8.05;2.60;;;17.10;99.90;;;;;;5073511;28;20194;-48
2023/06/15 04:13:49;;;;;;;6.13;2.95;;;17.30;99.90;;;;;;5073408;28;20169;-50
2023/06/15 04:16:14;;;;;;;10.00;3.05;;;17.40;99.90;;;;;;5073572;28;20496;-48
2023/06/15 04:18:40;;;;;;;6.65;3.03;;;17.50;99.90;;;;;;5073692;28;20249;-49
2023/06/15 04:21:06;;;;;;;7.10;2.95;;;;;;;;;;5073187;28;20211;-49
2023/06/15 04:23:32;;;;;;;5.85;2.72;;;17.40;99.90;;;;;;5073005;28;20296;-49
2023/06/15 04:26:00;;;;;;;8.98;3.17;;;17.70;99.90;;;;;;5073171;28;20633;-49
2023/06/15 04:28:26;;;;;;;6.00;3.13;;;17.70;99.90;;;;;;5073300;28;20177;-48
2023/06/15 04:31:12;;;;;;;4.72;2.92;;;17.70;99.90;;;;;;5055059;28;20672;-48
2023/06/15 04:33:42;;;;;;;6.20;2.83;;;17.80;99.90;;;;;;5073541;28;20166;-48
2023/06/15 04:36:14;;;;;;;4.32;3.03;;;18.00;99.90;;;;;;5073151;28;20174;-50
2023/06/15 04:38:46;;;;;;;5.55;3.72;;;18.20;99.90;;;;;;5073256;28;20679;-49
2023/06/15 04:41:12;;;;;;;5.60;3.05;;;;;;;;;;5073432;28;20231;-49
2023/06/15 04:43:37;;;;;;;6.18;3.53;;;18.30;99.90;;;;;;5072614;28;20231;-49
2023/06/15 04:46:03;;;;;;;6.45;3.53;;;18.40;99.90;;;;;;5072033;28;20625;-49
2023/06/15 04:48:29;;;;;;;6.50;3.42;;;18.60;99.90;;;;;;5072563;28;20173;-49
2023/06/15 04:50:56;;;;;;;4.53;3.40;;;18.40;99.90;;;;;;5072454;28;20292;-49
2023/06/15 04:53:22;;;;;;;8.07;3.42;;;18.60;99.90;;;;;;5072635;28;20181;-48
2023/06/15 04:55:51;;;;;;;5.00;3.20;;;18.70;99.90;;;;;;5072286;28;20166;-48
2023/06/15 04:58:17;;;;;;;5.05;3.25;;;19.00;99.90;;;;;;5072558;28;20174;-49
2023/06/15 05:00:44;;;;;;;6.20;3.42;;;18.80;99.90;;;;;;5072279;28;20161;-49
2023/06/15 05:03:11;;;;;;;7.82;3.30;;;18.80;99.90;;;;;;5072530;28;20216;-49
2023/06/15 05:05:36;;;;;;;5.53;2.75;;;18.90;99.90;;;;;;5072297;28;20709;-48
2023/06/15 05:08:02;;;;;;;7.90;3.17;;;19.00;99.90;;;;;;5072051;28;20218;-52
2023/06/15 05:10:28;;;;;;;6.93;3.63;;;19.00;99.90;;;;;;5072467;28;20216;-49
2023/06/15 05:12:54;;;;;;;3.20;2.83;;;19.10;99.90;;;;;;5054286;28;20170;-49
2023/06/15 05:15:20;;;;;;;5.82;3.00;;;19.20;99.90;;;;;;5072106;28;20644;-51
2023/06/15 05:17:46;;;;;;;7.22;3.78;;;19.40;99.90;;;;;;5072048;28;20197;-50
2023/06/15 05:20:12;;;;;;;4.75;3.30;;;19.80;99.90;;;;;;5072688;28;20745;-51
2023/06/15 05:22:38;;;;;;;10.45;3.40;;;19.50;99.90;;;;;;5072344;28;20665;-51
2023/06/15 05:25:04;;;;;;;8.18;3.63;;;19.60;99.90;;;;;;5071963;28;20180;-52
2023/06/15 05:27:30;;;;;;;7.22;3.33;;;19.80;99.90;;;;;;5071829;28;20241;-52
2023/06/15 05:29:55;;;;;;;10.80;3.28;;;20.00;99.90;;;;;;5072026;28;20204;-50
2023/06/15 05:32:21;;;;;;;7.78;3.75;;;20.10;99.90;;;;;;5071936;28;20158;-51
2023/06/15 05:34:47;;;;;;;10.48;3.35;;;;;;;;;;5071810;28;20166;-50
2023/06/15 05:37:12;;;;;;;11.73;3.53;;;20.20;99.90;;;;;;5072345;28;20173;-50
2023/06/15 05:39:38;;;;;;;8.75;3.92;;;20.60;99.90;;;;;;5072219;28;20188;-50
2023/06/15 05:42:04;;;;;;;9.30;3.00;;;20.60;99.90;;;;;;5071768;28;20664;-50
2023/06/15 05:44:30;;;;;;;6.53;3.00;;;20.70;99.90;;;;;;5071909;28;20305;-51
2023/06/15 05:46:55;;;;;;;7.50;3.60;;;20.80;99.90;;;;;;5071854;28;20586;-49
2023/06/15 05:49:21;;;;;;;4.55;3.00;;;20.80;99.90;;;;;;5071741;28;20239;-49
2023/06/15 05:51:46;;;;;;;4.97;3.05;;;21.10;99.90;;;;;;5071628;28;20184;-49
2023/06/15 05:54:12;;;;;;;3.67;2.78;;;21.10;99.90;;;;;;5072002;28;20177;-49
2023/06/15 05:56:38;;;;;;;6.72;2.90;;;21.10;99.90;;;;;;5071321;28;20244;-49
2023/06/15 05:59:03;;;;;;;4.20;2.72;;;21.00;99.90;;;;;;5053551;28;20178;-50
2023/06/15 06:01:29;;;;;;;5.65;3.20;;;20.70;99.90;;;;;;5071474;28;20158;-49
2023/06/15 06:03:54;;;;;;;3.20;2.80;;;21.10;99.90;;;;;;5071355;28;20563;-49
2023/06/15 06:06:20;;;;;;;4.18;3.10;;;21.10;99.90;;;;;;5071688;28;20744;-50
2023/06/15 06:08:46;;;;;;;3.00;2.80;;;20.90;99.90;;;;;;5071230;28;20620;-50
2023/06/15 06:11:12;;;;;;;4.78;3.15;;;21.30;99.90;;;;;;5071740;28;20222;-49
2023/06/15 06:13:37;;;;;;;4.75;3.00;;;21.20;99.90;;;;;;5071397;28;20174;-49
2023/06/15 06:16:03;;;;;;;4.30;3.20;;;21.20;99.90;;;;;;5071373;28;20166;-49
2023/06/15 06:18:29;;;;;;;4.57;2.75;;;21.40;99.90;;;;;;5071370;28;20189;-49
2023/06/15 06:20:54;;;;;;;7.43;3.13;;;21.70;99.90;;;;;;5071399;28;20309;-49
2023/06/15 06:23:20;;;;;;;5.20;3.35;;;21.50;99.90;;;;;;5071583;28;20213;-49
2023/06/15 06:25:45;;;;;;;7.50;3.10;;;21.30;99.90;;;;;;5071563;28;20166;-49
2023/06/15 06:28:11;;;;;;;6.15;3.03;;;21.30;99.90;;;;;;5071713;28;20529;-49
2023/06/15 06:30:38;;;;;;;4.13;2.67;;;21.80;99.90;;;;;;5071281;28;20162;-50
2023/06/15 06:33:04;;;;;;;5.05;2.85;;;21.60;99.90;;;;;;5071451;28;20170;-50
2023/06/15 06:35:30;;;;;;;5.18;3.38;;;21.90;99.90;;;;;;5071433;28;20170;-50
2023/06/15 06:37:55;;;;;;;4.75;3.65;;;21.80;99.90;;;;;;5071060;28;20176;-50
2023/06/15 06:40:21;;;;;;;3.83;3.25;;;21.70;99.90;;;;;;5071407;28;20181;-49
2023/06/15 06:42:46;;;;;;;5.57;3.00;;;21.80;99.90;;;;;;5071032;28;20673;-49
2023/06/15 06:45:12;;;;;;;3.55;2.53;;;21.90;99.90;;;;;;5071532;28;20693;-49
2023/06/15 06:47:38;;;;;;;4.15;3.15;;;21.90;99.90;;;;;;5071567;28;20166;-49
2023/06/15 06:50:05;;;;;;;5.43;3.25;;;22.00;99.90;;;;;;5071350;28;20188;-49
2023/06/15 06:52:30;;;;;;;7.05;3.17;;;22.10;99.90;;;;;;5070971;28;20162;-49
2023/06/15 06:54:56;;;;;;;5.35;3.33;;;22.10;99.90;;;;;;5070955;28;20193;-49
2023/06/15 06:57:22;;;;;;;7.15;3.28;;;22.60;99.90;;;;;;5070995;28;20253;-50
2023/06/15 06:59:47;;;;;;;4.43;2.95;;;22.50;99.90;;;;;;5070990;28;20236;-49
2023/06/15 07:02:13;;;;;;;4.05;2.97;;;22.50;99.90;;;;;;5070922;28;20228;-49
2023/06/15 07:04:39;;;;;;;7.10;2.95;;;22.50;99.90;;;;;;5071263;28;20209;-49
2023/06/15 07:07:05;;;;;;;4.25;3.40;;;22.60;99.90;;;;;;5053040;28;20586;-49
2023/06/15 07:09:31;;;;;;;3.35;2.50;;;22.70;99.90;;;;;;5072930;28;20192;-50
2023/06/15 07:11:56;;;;;;;3.80;2.80;;;22.70;99.90;;;;;;5074703;28;20178;-52
2023/06/15 07:14:22;;;;;;;6.95;3.50;;;22.90;99.90;;;;;;5074603;28;20204;-49
2023/06/15 07:16:47;;;;;;;5.75;3.35;;;22.90;99.90;;;;;;5074452;28;20590;-49
2023/06/15 07:19:13;;;;;;;8.10;3.40;;;23.00;99.90;;;;;;5074679;28;20552;-49
2023/06/15 07:21:39;;;;;;;8.15;3.25;;;23.00;99.90;;;;;;5074763;28;20176;-49
2023/06/15 07:24:05;;;;;;;4.45;3.00;;;23.10;99.90;;;;;;5074214;28;20331;-50
2023/06/15 07:26:30;;;;;;;4.38;3.03;;;23.00;99.90;;;;;;5074273;28;20177;-49
2023/06/15 07:28:56;;;;;;;4.90;3.03;;;23.40;99.90;;;;;;5074272;28;20158;-49
2023/06/15 07:31:22;;;;;;;4.55;3.00;;;23.40;99.90;;;;;;5074310;28;20245;-49
2023/06/15 07:33:47;;;;;;;5.90;3.33;;;23.60;99.90;;;;;;5074195;28;20166;-49
2023/06/15 07:36:13;;;;;;;10.68;3.05;;;23.60;99.90;;;;;;5074020;28;20610;-50
2023/06/15 07:38:40;;;;;;;5.28;3.42;;;23.70;99.90;;;;;;5074699;28;20683;-49
2023/06/15 07:41:06;;;;;;;3.80;3.20;;;23.60;99.90;;;;;;5074302;28;20166;-50
2023/06/15 07:43:32;;;;;;;5.68;3.60;;;23.50;99.90;;;;;;5073891;28;20612;-49
2023/06/15 07:45:58;;;;;;;4.57;3.05;;;23.60;99.90;;;;;;5073966;28;20197;-49
2023/06/15 07:48:23;;;;;;;5.60;3.05;;;23.70;99.90;;;;;;5073830;28;20220;-50
2023/06/15 07:50:49;;;;;;;5.40;3.20;;;23.80;99.90;;;;;;5073855;28;20174;-49
2023/06/15 07:53:15;;;;;;;4.28;3.45;;;24.00;99.90;;;;;;5055751;28;20318;-49
2023/06/15 07:55:40;;;;;;;4.07;3.30;;;24.20;99.90;;;;;;5074119;28;20308;-49
2023/06/15 07:58:06;;;;;;;6.57;3.08;;;;;;;;;;5073791;28;20182;-49
2023/06/15 08:00:32;;;;;;;7.85;3.47;;;24.40;99.90;;;;;;5073458;28;20260;-49
2023/06/15 08:02:58;;;;;;;10.32;3.28;;;23.90;99.50;;;;;;5073512;28;20204;-49
2023/06/15 08:05:23;;;;;;;5.20;2.67;;;24.40;99.30;;;;;;5073810;28;20533;-49
2023/06/15 08:07:49;;;;;;;6.22;3.10;;;24.10;99.00;;;;;;5073337;28;20702;-49
2023/06/15 08:10:15;;;;;;;3.42;2.95;;;24.10;98.40;;;;;;5073734;28;20530;-49
2023/06/15 08:12:40;;;;;;;4.45;3.38;;;24.50;99.20;;;;;;5073780;28;20220;-49
2023/06/15 08:15:06;;;;;;;7.57;2.90;;;24.60;97.50;;;;;;5073337;28;20174;-49
2023/06/15 08:17:32;;;;;;;6.57;2.97;;;24.70;97.70;;;;;;5073321;28;20751;-49
2023/06/15 08:19:57;;;;;;;4.28;3.08;;;24.90;95.20;;;;;;5073359;28;20170;-49
2023/06/15 08:22:23;;;;;;;6.38;2.95;;;24.60;94.90;;;;;;5073238;28;20552;-49
2023/06/15 08:24:49;;;;;;;5.95;2.88;;;24.90;93.00;;;;;;5073108;28;20744;-49
2023/06/15 08:27:14;;;;;;;4.15;3.25;;;25.30;93.80;;;;;;5073085;28;20517;-49
2023/06/15 08:29:44;;;;;;;6.20;3.10;;;25.00;94.00;;;;;;5073391;28;20214;-49
2023/06/15 08:32:13;;;;;;;6.70;2.80;;;25.30;93.20;;;;;;5073659;28;20218;-49
2023/06/15 08:34:43;;;;;;;7.88;3.20;;;25.20;93.40;;;;;;5073590;28;20178;-49
2023/06/15 08:37:10;;;;;;;5.65;3.08;;;25.30;92.90;;;;;;5073321;28;20162;-49
2023/06/15 08:39:35;;;;;;;5.93;3.00;;;24.90;92.90;;;;;;5072878;28;20166;-49
2023/06/15 08:42:02;;;;;;;7.35;3.50;;;25.00;92.50;;;;;;5072785;28;20695;-49
2023/06/15 08:44:31;;;;;;;5.03;3.50;;;25.30;92.40;;;;;;5072659;28;20201;-49
2023/06/15 08:46:57;;;;;;;8.43;3.20;;;25.50;91.80;;;;;;5072931;28;20174;-49
2023/06/15 08:49:26;;;;;;;3.60;2.78;;;25.60;88.90;;;;;;5072685;28;20642;-49
2023/06/15 08:51:53;;;;;;;4.10;3.10;;;25.50;90.00;;;;;;5072825;28;20211;-49
2023/06/15 08:54:21;;;;;;;4.85;3.17;;;25.50;88.80;;;;;;5072517;28;20170;-49
2023/06/15 08:56:46;;;;;;;6.68;3.30;;;25.90;89.80;;;;;;5054533;28;20164;-49
2023/06/15 08:59:12;;;;;;;4.65;3.20;;;;;;;;;;5072547;28;20253;-49
2023/06/15 09:01:41;;;;;;;8.15;3.67;;;26.20;86.80;;;;;;5072785;28;20644;-49
2023/06/15 09:04:07;;;;;;;5.55;3.13;;;26.60;88.30;;;;;;5072807;28;20210;-49
2023/06/15 09:06:33;;;;;;;5.00;3.33;;;26.20;87.20;;;;;;5072321;28;20169;-49
2023/06/15 09:08:59;;;;;;;5.72;3.25;;;25.90;85.00;;;;;;5072097;28;20217;-49
2023/06/15 09:11:24;;;;;;;8.30;3.63;;;26.10;87.00;;;;;;5072207;28;20240;-49
2023/06/15 09:13:50;;;;;;;7.05;3.63;;;26.30;85.50;;;;;;5072190;28;20626;-49
2023/06/15 09:16:16;;;;;;;8.25;3.80;;;26.10;84.70;;;;;;5072098;28;20172;-49
2023/06/15 09:18:45;;;;;;;6.30;3.20;;;26.30;82.10;;;;;;5072504;28;20174;-49
2023/06/15 09:21:12;;;;;;;9.27;3.45;;;26.40;82.30;;;;;;5072617;28;20192;-49
2023/06/15 09:23:41;;;;;;;6.72;3.42;;;26.90;81.00;;;;;;5054459;28;20206;-49
2023/06/15 09:26:07;;;;;;;5.53;3.45;;;26.70;81.00;;;;;;5072502;28;20169;-49
2023/06/15 09:28:33;;;;;;;7.38;3.55;;;26.10;78.50;;;;;;5072175;28;20256;-49
2023/06/15 09:31:00;;;;;;;6.82;3.33;;;26.30;79.50;;;;;;5071709;28;20197;-49
2023/06/15 09:33:26;;;;;;;4.13;3.30;;;26.50;78.60;;;;;;5071672;28;20253;-49
2023/06/15 09:35:58;;;;;;;5.03;3.25;;;26.40;78.70;;;;;;5072056;28;20507;-49
2023/06/15 09:38:25;;;;;;;5.13;2.90;;;26.80;78.50;;;;;;5072016;28;20239;-49
2023/06/15 09:40:51;;;;;;;8.32;3.42;;;26.80;79.20;;;;;;5072014;28;20181;-49
2023/06/15 09:43:18;;;;;;;5.80;3.20;;;26.80;78.50;;;;;;5071987;28;20653;-51
2023/06/15 09:45:54;;;;;;;7.30;2.85;;;27.30;77.90;;;;;;5071895;28;20181;-51
2023/06/15 09:48:21;;;;;;;7.80;3.47;;;27.40;76.90;;;;;;5071946;28;20172;-52
2023/06/15 09:50:53;;;;;;;16.20;3.55;;;27.30;74.90;;;;;;5071604;28;20629;-52
2023/06/15 09:53:19;;;;;;;6.85;3.53;;;27.80;76.00;;;;;;5071443;28;20529;-51
2023/06/15 09:55:46;;;;;;;7.85;3.47;;;27.80;76.10;;;;;;5071825;28;20169;-51
2023/06/15 09:58:12;;;;;;;6.60;3.55;;;27.80;75.00;;;;;;5072174;28;20172;-51
2023/06/15 10:00:38;;;;;;;5.75;3.50;;;28.10;74.80;;;;;;5071888;28;20303;-50
2023/06/15 10:03:09;;;;;;;6.03;3.50;;;28.10;76.40;;;;;;5085335;28;20564;-52
2023/06/15 10:05:40;;;;;;;8.32;3.42;;;28.10;75.30;;;;;;5089946;28;20169;-50
2023/06/15 10:08:08;;;;;;;5.97;3.33;;;28.50;75.10;;;;;;5089951;28;20602;-51
2023/06/15 10:10:37;;;;;;;6.75;3.83;;;28.30;73.00;;;;;;5089707;28;20165;-52
2023/06/15 10:13:05;;;;;;;4.78;3.38;;;28.50;75.80;;;;;;5090138;28;20172;-50
2023/06/15 10:15:33;;;;;;;6.00;3.22;;;;;;;;;;5089926;28;20189;-51
2023/06/15 10:18:02;;;;;;;4.35;3.30;;;28.60;73.60;;;;;;5089837;28;20175;-51
2023/06/15 10:20:29;;;;;;;9.38;3.72;;;28.60;75.30;;;;;;5089982;28;20608;-52
2023/06/15 10:23:04;;;;;;;6.70;3.85;;;28.70;73.70;;;;;;5089598;28;20185;-50
2023/06/15 10:25:32;;;;;;;5.45;3.50;;;28.80;71.20;;;;;;5089627;28;20176;-51
2023/06/15 10:28:02;;;;;;;8.10;3.67;;;29.10;72.70;;;;;;5090058;28;20647;-51
2023/06/15 10:30:28;;;;;;;6.72;3.88;;;;;;;;;;5089693;28;20175;-51
2023/06/15 10:33:14;;;;;;;6.45;3.90;;;29.10;72.50;;;;;;5089641;28;20247;-51
2023/06/15 10:35:52;;;;;;;4.35;3.88;;;29.30;69.30;;;;;;5090101;28;20173;-50
2023/06/15 10:38:31;;;;;;;7.20;3.67;;;29.10;68.90;;;;;;5089449;28;20171;-50
2023/06/15 10:40:58;;;;;;;7.68;3.63;;;29.40;66.80;;;;;;5089578;28;20522;-50
2023/06/15 10:43:27;;;;;;;4.68;3.67;;;29.40;66.60;;;;;;5089847;28;20207;-51
2023/06/15 10:45:53;;;;;;;7.15;3.70;;;29.30;67.50;;;;;;5093265;28;20160;-51
2023/06/15 10:48:27;;;;;;;6.47;3.55;;;29.20;65.30;;;;;;5092115;28;20191;-51
2023/06/15 10:51:09;;;;;;;6.72;3.63;;;29.00;64.10;;;;;;5093275;28;20239;-51
2023/06/15 10:53:38;;;;;;;7.28;3.58;;;29.10;65.30;;;;;;5093514;28;20184;-51
2023/06/15 10:56:11;;;;;;;4.85;3.17;;;29.30;65.30;;;;;;5093265;28;20238;-51
2023/06/15 10:58:52;;;;;;;5.95;3.53;;;29.00;63.60;;;;;;5093724;28;20176;-51
2023/06/15 11:01:24;;;;;;;4.65;3.80;;;29.30;64.60;;;;;;5093376;28;20588;-51
2023/06/15 11:03:51;;;;;;;9.73;3.65;;;29.40;66.10;;;;;;5093436;28;20204;-51
2023/06/15 11:06:20;;;;;;;4.82;3.25;;;29.30;65.20;;;;;;5093309;28;20637;-51
2023/06/15 11:08:51;;;;;;;5.85;3.50;;;29.50;64.30;;;;;;5092871;28;20266;-51
2023/06/15 11:11:31;;;;;;;7.13;3.35;;;29.00;62.40;;;;;;5092890;28;20172;-51
2023/06/15 11:14:02;;;;;;;10.00;3.42;;;29.50;61.80;;;;;;5093074;28;20218;-51
2023/06/15 11:16:38;;;;;;;9.27;4.18;;;28.60;60.40;;;;;;5092941;28;20180;-51
2023/06/15 11:19:10;;;;;;;5.47;3.55;;;28.30;60.90;;;;;;5092798;28;20199;-51
2023/06/15 11:21:40;;;;;;;6.05;3.50;;;28.60;62.70;;;;;;5092837;28;20653;-51
2023/06/15 11:24:07;;;;;;;7.00;4.05;;;28.90;66.40;;;;;;5092601;28;20683;-51
2023/06/15 11:26:34;;;;;;;6.03;3.97;;;28.80;68.60;;;;;;5092717;28;20277;-51
2023/06/15 11:29:03;;;;;;;6.47;3.75;;;28.80;67.40;;;;;;5092857;28;20181;-51
2023/06/15 11:31:31;;;;;;;5.28;3.80;;;28.40;67.40;;;;;;5092641;28;20169;-51
2023/06/15 11:33:57;;;;;;;5.97;3.70;;;28.50;68.20;;;;;;5086858;28;20667;-51
2023/06/15 11:36:23;;;;;;;6.88;4.00;;;28.80;68.20;;;;;;5072210;28;20470;-51
2023/06/15 11:38:48;;;;;;;8.05;4.03;;;29.00;68.20;;;;;;5072327;28;20165;-51
2023/06/15 11:41:14;;;;;;;6.38;3.63;;;28.90;70.70;;;;;;5072192;28;20184;-51
2023/06/15 11:43:52;;;;;;;6.85;3.67;;;29.20;68.20;;;;;;5072391;28;20204;-51
2023/06/15 11:46:22;;;;;;;6.35;4.03;;;29.30;69.80;;;;;;5072273;28;20279;-51
2023/06/15 11:48:49;;;;;;;4.65;3.78;;;29.80;68.80;;;;;;5072187;28;20201;-51
2023/06/15 11:51:16;;;;;;;4.32;3.72;;;29.40;66.30;;;;;;5072568;28;20260;-51
2023/06/15 11:53:43;;;;;;;5.95;3.42;;;29.50;66.60;;;;;;5071879;28;20192;-51
2023/06/15 11:56:13;;;;;;;5.53;4.05;;;29.80;66.40;;;;;;5071959;28;20261;-51
2023/06/15 11:58:46;;;;;;;7.50;4.03;;;29.80;67.20;;;;;;5054479;28;20165;-51
2023/06/15 12:01:14;;;;;;;5.50;4.03;;;29.80;64.60;;;;;;5072109;28;20197;-50
2023/06/15 12:03:43;;;;;;;8.63;3.60;;;29.80;65.50;;;;;;5072122;28;20672;-50
2023/06/15 12:06:14;;;;;;;6.60;3.65;;;29.80;65.70;;;;;;5072221;28;20672;-51
2023/06/15 12:08:40;;;;;;;6.43;3.70;;;29.90;62.00;;;;;;5071902;28;20221;-52
2023/06/15 12:11:06;;;;;;;5.05;3.47;;;29.40;63.50;;;;;;5072020;28;20670;-49
2023/06/15 12:13:31;;;;;;;7.70;3.40;;;29.50;63.20;;;;;;5085042;28;20195;-48
2023/06/15 12:15:59;;;;;;;11.05;3.80;;;29.40;63.40;;;;;;5091940;28;20260;-51
2023/06/15 12:18:26;;;;;;;3.85;3.33;;;29.70;61.20;;;;;;5091983;28;20595;-51
2023/06/15 12:20:52;;;;;;;6.35;3.50;;;30.40;61.00;;;;;;5091806;28;20173;-51
2023/06/15 12:23:31;;;;;;;10.35;3.92;;;30.10;60.00;;;;;;5092869;28;20683;-49
2023/06/15 12:25:57;;;;;;;3.63;3.33;;;30.20;60.20;;;;;;5093343;28;20260;-49
2023/06/15 12:28:28;;;;;;;5.18;3.47;;;30.50;61.20;;;;;;5093321;28;20161;-49
2023/06/15 12:31:02;;;;;;;5.15;3.80;;;30.10;60.50;;;;;;5093217;28;20157;-49
2023/06/15 12:33:38;;;;;;;7.05;3.20;;;30.20;60.90;;;;;;5093244;28;20179;-49
2023/06/15 12:36:10;;;;;;;6.35;3.28;;;30.20;61.60;;;;;;5093452;28;20640;-49
2023/06/15 12:38:36;;;;;;;6.43;3.53;;;30.10;61.70;;;;;;5093431;28;20184;-49
2023/06/15 12:41:01;;;;;;;7.47;4.03;;;30.20;62.90;;;;;;5093286;28;20168;-48
2023/06/15 12:43:27;;;;;;;5.63;3.72;;;30.50;63.50;;;;;;5093120;28;20212;-49
2023/06/15 12:45:57;;;;;;;6.25;3.70;;;30.40;60.80;;;;;;5092990;28;20169;-49
2023/06/15 12:48:23;;;;;;;6.82;4.43;;;30.70;61.80;;;;;;5092951;28;20171;-49